sensor_id;sensor_type;location;lat;lon;timestamp;P1;durP1;ratioP1;P2;durP2;ratioP2
43580;SDS011;29175;51.030;4.606;2022-12-07T00:01:10;26.17;;;11.18;;
43580;SDS011;29175;51.030;4.606;2022-12-07T00:03:38;26.52;;;12.13;;
43580;SDS011;29175;51.030;4.606;2022-12-07T00:06:05;23.63;;;12.13;;
43580;SDS011;29175;51.030;4.606;2022-12-07T00:08:33;22.40;;;11.70;;
43580;SDS011;29175;51.030;4.606;2022-12-07T00:11:03;27.15;;;12.95;;
43580;SDS011;29175;51.030;4.606;2022-12-07T00:13:30;24.88;;;11.93;;
43580;SDS011;29175;51.030;4.606;2022-12-07T00:16:00;26.30;;;11.77;;
43580;SDS011;29175;51.030;4.606;2022-12-07T00:18:30;24.55;;;12.50;;
43580;SDS011;29175;51.030;4.606;2022-12-07T00:21:03;26.25;;;12.65;;
43580;SDS011;29175;51.030;4.606;2022-12-07T00:23:31;26.23;;;12.25;;
43580;SDS011;29175;51.030;4.606;2022-12-07T00:26:08;25.50;;;13.13;;
43580;SDS011;29175;51.030;4.606;2022-12-07T00:28:36;25.25;;;11.80;;
43580;SDS011;29175;51.030;4.606;2022-12-07T00:31:06;28.45;;;12.68;;
43580;SDS011;29175;51.030;4.606;2022-12-07T00:33:34;21.70;;;12.02;;
43580;SDS011;29175;51.030;4.606;2022-12-07T00:36:01;35.50;;;13.60;;
43580;SDS011;29175;51.030;4.606;2022-12-07T00:38:29;28.58;;;13.80;;
43580;SDS011;29175;51.030;4.606;2022-12-07T00:41:00;31.73;;;13.05;;
43580;SDS011;29175;51.030;4.606;2022-12-07T00:43:29;27.27;;;13.13;;
43580;SDS011;29175;51.030;4.606;2022-12-07T00:45:55;28.75;;;13.18;;
43580;SDS011;29175;51.030;4.606;2022-12-07T00:48:21;34.80;;;15.80;;
43580;SDS011;29175;51.030;4.606;2022-12-07T00:50:48;32.70;;;15.52;;
43580;SDS011;29175;51.030;4.606;2022-12-07T00:53:15;32.80;;;14.05;;
43580;SDS011;29175;51.030;4.606;2022-12-07T00:55:41;31.35;;;13.60;;
43580;SDS011;29175;51.030;4.606;2022-12-07T00:58:07;30.88;;;14.82;;
43580;SDS011;29175;51.030;4.606;2022-12-07T01:00:34;28.92;;;14.35;;
43580;SDS011;29175;51.030;4.606;2022-12-07T01:03:02;35.35;;;16.30;;
43580;SDS011;29175;51.030;4.606;2022-12-07T01:05:28;34.25;;;15.07;;
43580;SDS011;29175;51.030;4.606;2022-12-07T01:07:54;27.77;;;14.70;;
43580;SDS011;29175;51.030;4.606;2022-12-07T01:10:20;31.17;;;14.98;;
43580;SDS011;29175;51.030;4.606;2022-12-07T01:12:45;30.05;;;14.98;;
43580;SDS011;29175;51.030;4.606;2022-12-07T01:15:11;33.20;;;15.10;;
43580;SDS011;29175;51.030;4.606;2022-12-07T01:17:37;33.92;;;16.05;;
43580;SDS011;29175;51.030;4.606;2022-12-07T01:20:03;33.17;;;14.52;;
43580;SDS011;29175;51.030;4.606;2022-12-07T01:22:29;34.63;;;14.35;;
43580;SDS011;29175;51.030;4.606;2022-12-07T01:24:57;31.77;;;15.35;;
43580;SDS011;29175;51.030;4.606;2022-12-07T01:27:22;34.45;;;15.73;;
43580;SDS011;29175;51.030;4.606;2022-12-07T01:29:48;39.92;;;16.63;;
43580;SDS011;29175;51.030;4.606;2022-12-07T01:32:14;31.80;;;15.73;;
43580;SDS011;29175;51.030;4.606;2022-12-07T01:34:40;35.58;;;15.90;;
43580;SDS011;29175;51.030;4.606;2022-12-07T01:37:05;34.67;;;16.48;;
43580;SDS011;29175;51.030;4.606;2022-12-07T01:39:31;28.88;;;14.77;;
43580;SDS011;29175;51.030;4.606;2022-12-07T01:41:57;27.75;;;14.05;;
43580;SDS011;29175;51.030;4.606;2022-12-07T01:44:28;32.60;;;14.90;;
43580;SDS011;29175;51.030;4.606;2022-12-07T01:47:02;36.53;;;16.38;;
43580;SDS011;29175;51.030;4.606;2022-12-07T01:49:30;30.65;;;15.25;;
43580;SDS011;29175;51.030;4.606;2022-12-07T01:52:01;26.05;;;14.25;;
43580;SDS011;29175;51.030;4.606;2022-12-07T01:54:56;34.38;;;15.30;;
43580;SDS011;29175;51.030;4.606;2022-12-07T01:57:26;35.20;;;16.73;;
43580;SDS011;29175;51.030;4.606;2022-12-07T01:59:53;34.58;;;15.82;;
43580;SDS011;29175;51.030;4.606;2022-12-07T02:02:27;30.90;;;15.43;;
43580;SDS011;29175;51.030;4.606;2022-12-07T02:04:59;33.47;;;16.90;;
43580;SDS011;29175;51.030;4.606;2022-12-07T02:07:27;32.95;;;14.70;;
43580;SDS011;29175;51.030;4.606;2022-12-07T02:09:54;30.20;;;14.57;;
43580;SDS011;29175;51.030;4.606;2022-12-07T02:12:20;31.48;;;15.57;;
43580;SDS011;29175;51.030;4.606;2022-12-07T02:14:49;33.38;;;15.60;;
43580;SDS011;29175;51.030;4.606;2022-12-07T02:20:03;35.53;;;15.38;;
43580;SDS011;29175;51.030;4.606;2022-12-07T02:26:18;34.70;;;15.65;;
43580;SDS011;29175;51.030;4.606;2022-12-07T02:31:18;30.45;;;15.07;;
43580;SDS011;29175;51.030;4.606;2022-12-07T02:34:00;31.70;;;15.13;;
43580;SDS011;29175;51.030;4.606;2022-12-07T02:36:38;32.65;;;14.75;;
43580;SDS011;29175;51.030;4.606;2022-12-07T02:41:51;29.67;;;14.63;;
43580;SDS011;29175;51.030;4.606;2022-12-07T02:44:22;30.88;;;15.02;;
43580;SDS011;29175;51.030;4.606;2022-12-07T02:49:24;32.47;;;14.80;;
43580;SDS011;29175;51.030;4.606;2022-12-07T02:51:53;27.95;;;14.85;;
43580;SDS011;29175;51.030;4.606;2022-12-07T02:54:20;28.90;;;14.48;;
43580;SDS011;29175;51.030;4.606;2022-12-07T03:13:16;32.50;;;14.73;;
43580;SDS011;29175;51.030;4.606;2022-12-07T03:18:39;25.42;;;13.60;;
43580;SDS011;29175;51.030;4.606;2022-12-07T03:21:25;32.13;;;13.80;;
43580;SDS011;29175;51.030;4.606;2022-12-07T03:23:56;35.15;;;15.60;;
43580;SDS011;29175;51.030;4.606;2022-12-07T03:26:28;22.05;;;12.40;;
43580;SDS011;29175;51.030;4.606;2022-12-07T03:29:00;33.78;;;14.30;;
43580;SDS011;29175;51.030;4.606;2022-12-07T03:31:31;31.33;;;13.93;;
43580;SDS011;29175;51.030;4.606;2022-12-07T03:36:55;24.95;;;12.38;;
43580;SDS011;29175;51.030;4.606;2022-12-07T03:39:41;29.85;;;12.60;;
43580;SDS011;29175;51.030;4.606;2022-12-07T03:42:17;25.73;;;12.82;;
43580;SDS011;29175;51.030;4.606;2022-12-07T03:44:43;28.00;;;13.30;;
43580;SDS011;29175;51.030;4.606;2022-12-07T03:50:12;29.73;;;12.10;;
43580;SDS011;29175;51.030;4.606;2022-12-07T03:52:46;27.13;;;12.57;;
43580;SDS011;29175;51.030;4.606;2022-12-07T03:55:22;25.02;;;11.93;;
43580;SDS011;29175;51.030;4.606;2022-12-07T03:57:54;25.52;;;12.27;;
43580;SDS011;29175;51.030;4.606;2022-12-07T04:00:24;23.15;;;11.18;;
43580;SDS011;29175;51.030;4.606;2022-12-07T04:02:51;28.83;;;12.18;;
43580;SDS011;29175;51.030;4.606;2022-12-07T04:05:18;24.02;;;11.80;;
43580;SDS011;29175;51.030;4.606;2022-12-07T04:07:43;23.77;;;11.65;;
43580;SDS011;29175;51.030;4.606;2022-12-07T04:10:10;25.83;;;11.25;;
43580;SDS011;29175;51.030;4.606;2022-12-07T04:12:36;25.80;;;12.02;;
43580;SDS011;29175;51.030;4.606;2022-12-07T04:15:02;20.30;;;10.95;;
43580;SDS011;29175;51.030;4.606;2022-12-07T04:17:28;24.83;;;11.05;;
43580;SDS011;29175;51.030;4.606;2022-12-07T04:19:54;28.10;;;12.85;;
43580;SDS011;29175;51.030;4.606;2022-12-07T04:22:20;22.90;;;12.32;;
43580;SDS011;29175;51.030;4.606;2022-12-07T04:24:46;25.50;;;13.05;;
43580;SDS011;29175;51.030;4.606;2022-12-07T04:27:11;21.50;;;11.60;;
43580;SDS011;29175;51.030;4.606;2022-12-07T04:29:37;22.13;;;11.85;;
43580;SDS011;29175;51.030;4.606;2022-12-07T04:32:03;17.75;;;11.57;;
43580;SDS011;29175;51.030;4.606;2022-12-07T04:34:29;23.55;;;11.32;;
43580;SDS011;29175;51.030;4.606;2022-12-07T04:36:55;19.27;;;11.10;;
43580;SDS011;29175;51.030;4.606;2022-12-07T04:39:22;23.70;;;12.05;;
43580;SDS011;29175;51.030;4.606;2022-12-07T04:41:52;23.23;;;11.23;;
43580;SDS011;29175;51.030;4.606;2022-12-07T04:44:19;20.25;;;11.18;;
43580;SDS011;29175;51.030;4.606;2022-12-07T04:46:46;26.33;;;12.63;;
43580;SDS011;29175;51.030;4.606;2022-12-07T04:49:13;35.40;;;14.55;;
43580;SDS011;29175;51.030;4.606;2022-12-07T04:51:41;23.30;;;12.25;;
43580;SDS011;29175;51.030;4.606;2022-12-07T04:54:07;31.23;;;13.07;;
43580;SDS011;29175;51.030;4.606;2022-12-07T04:56:33;21.42;;;11.93;;
43580;SDS011;29175;51.030;4.606;2022-12-07T04:59:00;26.67;;;11.98;;
43580;SDS011;29175;51.030;4.606;2022-12-07T05:01:27;29.05;;;12.50;;
43580;SDS011;29175;51.030;4.606;2022-12-07T05:03:53;24.13;;;11.60;;
43580;SDS011;29175;51.030;4.606;2022-12-07T05:06:18;22.48;;;12.82;;
43580;SDS011;29175;51.030;4.606;2022-12-07T05:08:45;23.55;;;12.43;;
43580;SDS011;29175;51.030;4.606;2022-12-07T05:11:11;25.63;;;12.88;;
43580;SDS011;29175;51.030;4.606;2022-12-07T05:13:58;20.33;;;11.65;;
43580;SDS011;29175;51.030;4.606;2022-12-07T05:16:23;23.88;;;11.88;;
43580;SDS011;29175;51.030;4.606;2022-12-07T05:18:50;24.63;;;12.80;;
43580;SDS011;29175;51.030;4.606;2022-12-07T05:21:16;29.83;;;12.05;;
43580;SDS011;29175;51.030;4.606;2022-12-07T05:23:42;25.15;;;12.23;;
43580;SDS011;29175;51.030;4.606;2022-12-07T05:26:08;22.45;;;11.30;;
43580;SDS011;29175;51.030;4.606;2022-12-07T05:28:33;21.95;;;12.50;;
43580;SDS011;29175;51.030;4.606;2022-12-07T05:30:59;25.15;;;11.57;;
43580;SDS011;29175;51.030;4.606;2022-12-07T05:33:25;26.67;;;12.02;;
43580;SDS011;29175;51.030;4.606;2022-12-07T05:35:51;21.98;;;10.90;;
43580;SDS011;29175;51.030;4.606;2022-12-07T05:38:17;23.02;;;10.35;;
43580;SDS011;29175;51.030;4.606;2022-12-07T05:40:43;28.70;;;11.57;;
43580;SDS011;29175;51.030;4.606;2022-12-07T05:43:09;24.90;;;10.40;;
43580;SDS011;29175;51.030;4.606;2022-12-07T05:45:36;25.80;;;11.63;;
43580;SDS011;29175;51.030;4.606;2022-12-07T05:48:02;23.20;;;10.63;;
43580;SDS011;29175;51.030;4.606;2022-12-07T05:50:28;26.35;;;10.57;;
43580;SDS011;29175;51.030;4.606;2022-12-07T05:52:54;16.92;;;10.13;;
43580;SDS011;29175;51.030;4.606;2022-12-07T05:55:20;24.27;;;11.00;;
43580;SDS011;29175;51.030;4.606;2022-12-07T05:57:45;23.25;;;10.45;;
43580;SDS011;29175;51.030;4.606;2022-12-07T06:00:31;26.90;;;10.82;;
43580;SDS011;29175;51.030;4.606;2022-12-07T06:02:57;18.70;;;10.27;;
43580;SDS011;29175;51.030;4.606;2022-12-07T06:05:23;18.40;;;10.30;;
43580;SDS011;29175;51.030;4.606;2022-12-07T06:07:49;29.48;;;11.63;;
43580;SDS011;29175;51.030;4.606;2022-12-07T06:10:14;19.85;;;10.35;;
43580;SDS011;29175;51.030;4.606;2022-12-07T06:12:40;23.75;;;10.98;;
43580;SDS011;29175;51.030;4.606;2022-12-07T06:15:08;23.70;;;11.25;;
43580;SDS011;29175;51.030;4.606;2022-12-07T06:17:35;23.55;;;10.77;;
43580;SDS011;29175;51.030;4.606;2022-12-07T06:20:02;22.70;;;10.45;;
43580;SDS011;29175;51.030;4.606;2022-12-07T06:22:28;21.25;;;10.07;;
43580;SDS011;29175;51.030;4.606;2022-12-07T06:24:54;20.17;;;9.75;;
43580;SDS011;29175;51.030;4.606;2022-12-07T06:27:20;21.48;;;9.90;;
43580;SDS011;29175;51.030;4.606;2022-12-07T06:29:45;18.63;;;9.63;;
43580;SDS011;29175;51.030;4.606;2022-12-07T06:32:12;19.10;;;10.05;;
43580;SDS011;29175;51.030;4.606;2022-12-07T06:34:38;26.33;;;11.27;;
43580;SDS011;29175;51.030;4.606;2022-12-07T06:37:03;18.38;;;9.35;;
43580;SDS011;29175;51.030;4.606;2022-12-07T06:39:29;19.23;;;10.07;;
43580;SDS011;29175;51.030;4.606;2022-12-07T06:41:55;18.75;;;10.48;;
43580;SDS011;29175;51.030;4.606;2022-12-07T06:44:22;19.83;;;10.52;;
43580;SDS011;29175;51.030;4.606;2022-12-07T06:46:48;24.42;;;10.07;;
43580;SDS011;29175;51.030;4.606;2022-12-07T06:49:14;16.10;;;8.95;;
43580;SDS011;29175;51.030;4.606;2022-12-07T06:51:40;19.25;;;10.18;;
43580;SDS011;29175;51.030;4.606;2022-12-07T06:54:07;19.20;;;8.48;;
43580;SDS011;29175;51.030;4.606;2022-12-07T06:56:34;17.23;;;8.70;;
43580;SDS011;29175;51.030;4.606;2022-12-07T06:58:59;20.33;;;8.65;;
43580;SDS011;29175;51.030;4.606;2022-12-07T07:01:25;21.60;;;9.10;;
43580;SDS011;29175;51.030;4.606;2022-12-07T07:03:51;22.70;;;10.13;;
43580;SDS011;29175;51.030;4.606;2022-12-07T07:06:17;19.70;;;9.45;;
43580;SDS011;29175;51.030;4.606;2022-12-07T07:08:43;25.00;;;9.80;;
43580;SDS011;29175;51.030;4.606;2022-12-07T07:11:08;20.13;;;9.32;;
43580;SDS011;29175;51.030;4.606;2022-12-07T07:13:35;20.35;;;10.32;;
43580;SDS011;29175;51.030;4.606;2022-12-07T07:16:00;21.45;;;9.80;;
43580;SDS011;29175;51.030;4.606;2022-12-07T07:18:26;20.60;;;10.38;;
43580;SDS011;29175;51.030;4.606;2022-12-07T07:20:52;18.83;;;9.77;;
43580;SDS011;29175;51.030;4.606;2022-12-07T07:23:19;20.90;;;9.65;;
43580;SDS011;29175;51.030;4.606;2022-12-07T07:25:46;18.58;;;9.43;;
43580;SDS011;29175;51.030;4.606;2022-12-07T07:28:12;21.02;;;8.40;;
43580;SDS011;29175;51.030;4.606;2022-12-07T07:30:38;24.45;;;8.90;;
43580;SDS011;29175;51.030;4.606;2022-12-07T07:33:04;22.27;;;9.68;;
43580;SDS011;29175;51.030;4.606;2022-12-07T07:35:31;30.92;;;9.82;;
43580;SDS011;29175;51.030;4.606;2022-12-07T07:37:58;21.17;;;9.32;;
43580;SDS011;29175;51.030;4.606;2022-12-07T07:40:25;22.85;;;8.98;;
43580;SDS011;29175;51.030;4.606;2022-12-07T07:42:52;17.70;;;9.18;;
43580;SDS011;29175;51.030;4.606;2022-12-07T07:45:19;24.10;;;9.60;;
43580;SDS011;29175;51.030;4.606;2022-12-07T07:47:46;21.40;;;9.77;;
43580;SDS011;29175;51.030;4.606;2022-12-07T07:50:12;19.52;;;9.02;;
43580;SDS011;29175;51.030;4.606;2022-12-07T07:52:38;20.17;;;9.82;;
43580;SDS011;29175;51.030;4.606;2022-12-07T07:55:04;25.15;;;10.43;;
43580;SDS011;29175;51.030;4.606;2022-12-07T07:57:32;23.38;;;10.65;;
43580;SDS011;29175;51.030;4.606;2022-12-07T07:59:58;21.83;;;10.23;;
43580;SDS011;29175;51.030;4.606;2022-12-07T08:02:24;23.25;;;9.27;;
43580;SDS011;29175;51.030;4.606;2022-12-07T08:04:50;25.20;;;10.45;;
43580;SDS011;29175;51.030;4.606;2022-12-07T08:07:17;24.77;;;10.60;;
43580;SDS011;29175;51.030;4.606;2022-12-07T08:09:42;21.63;;;9.75;;
43580;SDS011;29175;51.030;4.606;2022-12-07T08:12:08;25.80;;;10.82;;
43580;SDS011;29175;51.030;4.606;2022-12-07T08:14:34;25.15;;;11.32;;
43580;SDS011;29175;51.030;4.606;2022-12-07T08:17:00;30.38;;;10.88;;
43580;SDS011;29175;51.030;4.606;2022-12-07T08:19:26;31.67;;;11.15;;
43580;SDS011;29175;51.030;4.606;2022-12-07T08:21:51;31.70;;;11.55;;
43580;SDS011;29175;51.030;4.606;2022-12-07T08:24:18;28.20;;;12.27;;
43580;SDS011;29175;51.030;4.606;2022-12-07T08:26:44;28.38;;;10.45;;
43580;SDS011;29175;51.030;4.606;2022-12-07T08:29:10;48.42;;;12.68;;
43580;SDS011;29175;51.030;4.606;2022-12-07T08:31:35;47.75;;;14.30;;
43580;SDS011;29175;51.030;4.606;2022-12-07T08:34:01;39.60;;;13.43;;
43580;SDS011;29175;51.030;4.606;2022-12-07T08:36:27;31.20;;;12.63;;
43580;SDS011;29175;51.030;4.606;2022-12-07T08:38:53;22.67;;;11.00;;
43580;SDS011;29175;51.030;4.606;2022-12-07T08:41:18;24.48;;;10.98;;
43580;SDS011;29175;51.030;4.606;2022-12-07T08:43:45;30.58;;;10.30;;
43580;SDS011;29175;51.030;4.606;2022-12-07T08:46:25;19.92;;;9.75;;
43580;SDS011;29175;51.030;4.606;2022-12-07T08:49:13;21.05;;;9.35;;
43580;SDS011;29175;51.030;4.606;2022-12-07T08:51:43;28.15;;;10.32;;
43580;SDS011;29175;51.030;4.606;2022-12-07T08:54:11;20.85;;;9.80;;
43580;SDS011;29175;51.030;4.606;2022-12-07T08:56:40;16.23;;;9.05;;
43580;SDS011;29175;51.030;4.606;2022-12-07T08:59:06;25.75;;;10.52;;
43580;SDS011;29175;51.030;4.606;2022-12-07T09:01:32;21.83;;;9.77;;
43580;SDS011;29175;51.030;4.606;2022-12-07T09:03:59;20.15;;;9.07;;
43580;SDS011;29175;51.030;4.606;2022-12-07T09:06:25;25.40;;;10.20;;
43580;SDS011;29175;51.030;4.606;2022-12-07T09:08:52;23.67;;;9.88;;
43580;SDS011;29175;51.030;4.606;2022-12-07T09:11:21;21.20;;;9.90;;
43580;SDS011;29175;51.030;4.606;2022-12-07T09:13:47;17.48;;;8.77;;
43580;SDS011;29175;51.030;4.606;2022-12-07T09:16:13;19.20;;;8.52;;
43580;SDS011;29175;51.030;4.606;2022-12-07T09:18:38;18.30;;;9.10;;
43580;SDS011;29175;51.030;4.606;2022-12-07T09:21:04;17.92;;;8.65;;
43580;SDS011;29175;51.030;4.606;2022-12-07T09:23:30;17.23;;;7.85;;
43580;SDS011;29175;51.030;4.606;2022-12-07T09:25:59;15.75;;;7.65;;
43580;SDS011;29175;51.030;4.606;2022-12-07T09:28:25;19.38;;;8.75;;
43580;SDS011;29175;51.030;4.606;2022-12-07T09:30:51;23.17;;;8.68;;
43580;SDS011;29175;51.030;4.606;2022-12-07T09:33:17;20.13;;;7.57;;
43580;SDS011;29175;51.030;4.606;2022-12-07T09:35:46;18.63;;;8.50;;
43580;SDS011;29175;51.030;4.606;2022-12-07T09:38:16;17.80;;;8.32;;
43580;SDS011;29175;51.030;4.606;2022-12-07T09:40:43;22.67;;;7.67;;
43580;SDS011;29175;51.030;4.606;2022-12-07T09:43:13;23.80;;;8.73;;
43580;SDS011;29175;51.030;4.606;2022-12-07T09:45:43;19.95;;;7.38;;
43580;SDS011;29175;51.030;4.606;2022-12-07T09:48:18;25.27;;;8.15;;
43580;SDS011;29175;51.030;4.606;2022-12-07T09:50:46;20.63;;;8.65;;
43580;SDS011;29175;51.030;4.606;2022-12-07T09:56:13;20.95;;;8.75;;
43580;SDS011;29175;51.030;4.606;2022-12-07T09:58:42;24.20;;;8.55;;
43580;SDS011;29175;51.030;4.606;2022-12-07T10:03:35;21.30;;;8.88;;
43580;SDS011;29175;51.030;4.606;2022-12-07T10:06:03;16.13;;;6.63;;
43580;SDS011;29175;51.030;4.606;2022-12-07T10:08:30;15.07;;;6.72;;
43580;SDS011;29175;51.030;4.606;2022-12-07T10:10:56;14.57;;;6.05;;
43580;SDS011;29175;51.030;4.606;2022-12-07T10:13:33;15.18;;;6.93;;
43580;SDS011;29175;51.030;4.606;2022-12-07T10:16:04;16.75;;;6.78;;
43580;SDS011;29175;51.030;4.606;2022-12-07T10:21:08;13.20;;;6.38;;
43580;SDS011;29175;51.030;4.606;2022-12-07T10:23:42;14.45;;;5.72;;
43580;SDS011;29175;51.030;4.606;2022-12-07T10:28:55;15.38;;;5.55;;
43580;SDS011;29175;51.030;4.606;2022-12-07T10:31:23;21.52;;;6.82;;
43580;SDS011;29175;51.030;4.606;2022-12-07T10:33:56;16.73;;;6.03;;
43580;SDS011;29175;51.030;4.606;2022-12-07T10:36:25;20.13;;;6.53;;
43580;SDS011;29175;51.030;4.606;2022-12-07T10:41:52;10.90;;;5.25;;
43580;SDS011;29175;51.030;4.606;2022-12-07T10:44:26;13.98;;;5.28;;
43580;SDS011;29175;51.030;4.606;2022-12-07T10:52:32;13.57;;;5.05;;
43580;SDS011;29175;51.030;4.606;2022-12-07T10:55:11;9.65;;;4.07;;
43580;SDS011;29175;51.030;4.606;2022-12-07T11:03:37;9.75;;;4.55;;
43580;SDS011;29175;51.030;4.606;2022-12-07T11:14:56;10.32;;;4.10;;
43580;SDS011;29175;51.030;4.606;2022-12-07T11:17:53;11.27;;;4.80;;
43580;SDS011;29175;51.030;4.606;2022-12-07T11:20:42;12.13;;;4.82;;
43580;SDS011;29175;51.030;4.606;2022-12-07T11:26:15;12.35;;;4.85;;
43580;SDS011;29175;51.030;4.606;2022-12-07T11:34:50;20.67;;;5.90;;
43580;SDS011;29175;51.030;4.606;2022-12-07T11:37:31;18.52;;;5.43;;
43580;SDS011;29175;51.030;4.606;2022-12-07T11:42:51;10.85;;;5.20;;
43580;SDS011;29175;51.030;4.606;2022-12-07T11:45:32;13.50;;;5.65;;
43580;SDS011;29175;51.030;4.606;2022-12-07T11:53:56;11.60;;;5.45;;
43580;SDS011;29175;51.030;4.606;2022-12-07T11:56:26;11.07;;;5.10;;
43580;SDS011;29175;51.030;4.606;2022-12-07T11:59:13;19.92;;;6.45;;
43580;SDS011;29175;51.030;4.606;2022-12-07T12:01:53;11.05;;;5.43;;
43580;SDS011;29175;51.030;4.606;2022-12-07T12:07:08;12.23;;;5.80;;
43580;SDS011;29175;51.030;4.606;2022-12-07T12:10:34;14.82;;;5.88;;
43580;SDS011;29175;51.030;4.606;2022-12-07T12:12:48;12.77;;;6.10;;
43580;SDS011;29175;51.030;4.606;2022-12-07T12:16:04;15.40;;;5.85;;
43580;SDS011;29175;51.030;4.606;2022-12-07T12:21:38;13.02;;;5.60;;
43580;SDS011;29175;51.030;4.606;2022-12-07T12:24:09;15.75;;;5.43;;
43580;SDS011;29175;51.030;4.606;2022-12-07T12:26:38;13.60;;;5.72;;
43580;SDS011;29175;51.030;4.606;2022-12-07T12:37:46;16.60;;;5.22;;
43580;SDS011;29175;51.030;4.606;2022-12-07T12:42:44;15.63;;;4.70;;
43580;SDS011;29175;51.030;4.606;2022-12-07T12:47:55;10.80;;;4.85;;
43580;SDS011;29175;51.030;4.606;2022-12-07T12:50:32;12.32;;;4.65;;
43580;SDS011;29175;51.030;4.606;2022-12-07T12:53:24;13.55;;;5.25;;
43580;SDS011;29175;51.030;4.606;2022-12-07T12:56:10;17.90;;;5.20;;
43580;SDS011;29175;51.030;4.606;2022-12-07T12:59:21;12.73;;;5.38;;
43580;SDS011;29175;51.030;4.606;2022-12-07T13:01:55;10.48;;;4.97;;
43580;SDS011;29175;51.030;4.606;2022-12-07T13:04:49;16.17;;;5.25;;
43580;SDS011;29175;51.030;4.606;2022-12-07T13:18:24;16.17;;;5.05;;
43580;SDS011;29175;51.030;4.606;2022-12-07T13:23:38;11.10;;;4.90;;
43580;SDS011;29175;51.030;4.606;2022-12-07T13:26:14;15.98;;;4.70;;
43580;SDS011;29175;51.030;4.606;2022-12-07T13:28:50;13.45;;;4.70;;
43580;SDS011;29175;51.030;4.606;2022-12-07T13:34:03;11.43;;;4.78;;
43580;SDS011;29175;51.030;4.606;2022-12-07T13:36:33;13.80;;;4.53;;
43580;SDS011;29175;51.030;4.606;2022-12-07T13:41:41;12.85;;;4.93;;
43580;SDS011;29175;51.030;4.606;2022-12-07T13:44:14;12.80;;;4.47;;
43580;SDS011;29175;51.030;4.606;2022-12-07T13:49:25;13.60;;;4.88;;
43580;SDS011;29175;51.030;4.606;2022-12-07T13:51:52;12.57;;;4.82;;
43580;SDS011;29175;51.030;4.606;2022-12-07T13:54:19;10.20;;;4.38;;
43580;SDS011;29175;51.030;4.606;2022-12-07T13:56:50;11.00;;;4.38;;
43580;SDS011;29175;51.030;4.606;2022-12-07T13:59:23;8.23;;;4.05;;
43580;SDS011;29175;51.030;4.606;2022-12-07T14:01:51;9.50;;;3.75;;
43580;SDS011;29175;51.030;4.606;2022-12-07T14:07:22;11.60;;;4.53;;
43580;SDS011;29175;51.030;4.606;2022-12-07T14:09:57;7.68;;;4.53;;
43580;SDS011;29175;51.030;4.606;2022-12-07T14:12:25;13.00;;;5.72;;
43580;SDS011;29175;51.030;4.606;2022-12-07T14:14:52;9.32;;;4.53;;
43580;SDS011;29175;51.030;4.606;2022-12-07T14:17:20;8.70;;;3.55;;
43580;SDS011;29175;51.030;4.606;2022-12-07T14:27:39;6.70;;;3.10;;
43580;SDS011;29175;51.030;4.606;2022-12-07T14:30:16;8.15;;;2.92;;
43580;SDS011;29175;51.030;4.606;2022-12-07T14:32:43;8.07;;;3.88;;
43580;SDS011;29175;51.030;4.606;2022-12-07T14:35:13;6.78;;;3.35;;
43580;SDS011;29175;51.030;4.606;2022-12-07T14:37:40;9.18;;;3.22;;
43580;SDS011;29175;51.030;4.606;2022-12-07T14:40:09;16.05;;;3.25;;
43580;SDS011;29175;51.030;4.606;2022-12-07T14:42:44;4.78;;;2.97;;
43580;SDS011;29175;51.030;4.606;2022-12-07T14:45:21;5.15;;;2.95;;
43580;SDS011;29175;51.030;4.606;2022-12-07T14:47:47;3.92;;;2.88;;
43580;SDS011;29175;51.030;4.606;2022-12-07T14:50:14;4.07;;;2.67;;
43580;SDS011;29175;51.030;4.606;2022-12-07T14:52:46;6.57;;;3.72;;
43580;SDS011;29175;51.030;4.606;2022-12-07T14:55:26;7.22;;;3.50;;
43580;SDS011;29175;51.030;4.606;2022-12-07T14:57:53;10.95;;;3.85;;
43580;SDS011;29175;51.030;4.606;2022-12-07T15:00:21;6.00;;;3.00;;
43580;SDS011;29175;51.030;4.606;2022-12-07T15:02:49;12.32;;;3.30;;
43580;SDS011;29175;51.030;4.606;2022-12-07T15:05:17;5.40;;;2.95;;
43580;SDS011;29175;51.030;4.606;2022-12-07T15:07:43;7.78;;;3.88;;
43580;SDS011;29175;51.030;4.606;2022-12-07T15:10:20;10.95;;;3.38;;
43580;SDS011;29175;51.030;4.606;2022-12-07T15:12:48;6.47;;;3.33;;
43580;SDS011;29175;51.030;4.606;2022-12-07T15:15:14;9.20;;;4.03;;
43580;SDS011;29175;51.030;4.606;2022-12-07T15:17:40;8.30;;;3.78;;
43580;SDS011;29175;51.030;4.606;2022-12-07T15:20:08;5.88;;;3.70;;
43580;SDS011;29175;51.030;4.606;2022-12-07T15:22:37;8.68;;;3.75;;
43580;SDS011;29175;51.030;4.606;2022-12-07T15:25:03;6.88;;;3.65;;
43580;SDS011;29175;51.030;4.606;2022-12-07T15:27:30;7.70;;;3.92;;
43580;SDS011;29175;51.030;4.606;2022-12-07T15:29:57;11.52;;;4.65;;
43580;SDS011;29175;51.030;4.606;2022-12-07T15:32:24;9.88;;;3.65;;
43580;SDS011;29175;51.030;4.606;2022-12-07T15:34:50;8.48;;;3.92;;
43580;SDS011;29175;51.030;4.606;2022-12-07T15:37:15;7.55;;;3.60;;
43580;SDS011;29175;51.030;4.606;2022-12-07T15:39:41;9.40;;;3.83;;
43580;SDS011;29175;51.030;4.606;2022-12-07T15:42:07;6.82;;;3.67;;
43580;SDS011;29175;51.030;4.606;2022-12-07T15:44:33;7.57;;;3.92;;
43580;SDS011;29175;51.030;4.606;2022-12-07T15:47:17;6.15;;;3.65;;
43580;SDS011;29175;51.030;4.606;2022-12-07T15:49:43;9.20;;;4.13;;
43580;SDS011;29175;51.030;4.606;2022-12-07T15:52:09;7.28;;;3.70;;
43580;SDS011;29175;51.030;4.606;2022-12-07T15:54:36;4.63;;;3.40;;
43580;SDS011;29175;51.030;4.606;2022-12-07T15:57:01;6.05;;;3.72;;
43580;SDS011;29175;51.030;4.606;2022-12-07T15:59:28;11.15;;;3.90;;
43580;SDS011;29175;51.030;4.606;2022-12-07T16:01:54;9.70;;;4.80;;
43580;SDS011;29175;51.030;4.606;2022-12-07T16:04:20;12.77;;;5.43;;
43580;SDS011;29175;51.030;4.606;2022-12-07T16:06:48;14.30;;;5.78;;
43580;SDS011;29175;51.030;4.606;2022-12-07T16:09:15;11.45;;;4.88;;
43580;SDS011;29175;51.030;4.606;2022-12-07T16:11:41;10.30;;;4.95;;
43580;SDS011;29175;51.030;4.606;2022-12-07T16:14:08;13.57;;;4.93;;
43580;SDS011;29175;51.030;4.606;2022-12-07T16:16:34;10.35;;;5.25;;
43580;SDS011;29175;51.030;4.606;2022-12-07T16:19:00;14.23;;;5.57;;
43580;SDS011;29175;51.030;4.606;2022-12-07T16:21:26;12.25;;;5.28;;
43580;SDS011;29175;51.030;4.606;2022-12-07T16:23:53;12.18;;;5.60;;
43580;SDS011;29175;51.030;4.606;2022-12-07T16:26:20;10.40;;;5.40;;
43580;SDS011;29175;51.030;4.606;2022-12-07T16:28:50;15.05;;;5.57;;
43580;SDS011;29175;51.030;4.606;2022-12-07T16:33:44;14.00;;;5.70;;
43580;SDS011;29175;51.030;4.606;2022-12-07T16:36:11;14.73;;;5.95;;
43580;SDS011;29175;51.030;4.606;2022-12-07T16:38:39;11.80;;;4.82;;
43580;SDS011;29175;51.030;4.606;2022-12-07T16:41:06;10.13;;;4.63;;
43580;SDS011;29175;51.030;4.606;2022-12-07T16:43:33;13.05;;;4.88;;
43580;SDS011;29175;51.030;4.606;2022-12-07T16:45:59;11.98;;;4.88;;
43580;SDS011;29175;51.030;4.606;2022-12-07T16:48:25;14.27;;;4.60;;
43580;SDS011;29175;51.030;4.606;2022-12-07T16:50:51;6.97;;;3.58;;
43580;SDS011;29175;51.030;4.606;2022-12-07T16:53:19;5.72;;;3.47;;
43580;SDS011;29175;51.030;4.606;2022-12-07T16:55:45;7.53;;;3.22;;
43580;SDS011;29175;51.030;4.606;2022-12-07T16:58:12;9.48;;;3.28;;
43580;SDS011;29175;51.030;4.606;2022-12-07T17:00:39;8.63;;;3.38;;
43580;SDS011;29175;51.030;4.606;2022-12-07T17:03:06;5.30;;;3.10;;
43580;SDS011;29175;51.030;4.606;2022-12-07T17:05:32;7.18;;;3.30;;
43580;SDS011;29175;51.030;4.606;2022-12-07T17:07:58;6.65;;;3.33;;